sensor_id;sensor_type;location;lat;lon;timestamp;P1;durP1;ratioP1;P2;durP2;ratioP2
21272;SDS011;36726;52.328;10.552;2023-02-05T00:01:21;13.15;;;5.13;;
21272;SDS011;36726;52.328;10.552;2023-02-05T00:03:48;10.43;;;5.10;;
21272;SDS011;36726;52.328;10.552;2023-02-05T00:06:15;10.45;;;5.57;;
21272;SDS011;36726;52.328;10.552;2023-02-05T00:08:41;9.85;;;5.70;;
21272;SDS011;36726;52.328;10.552;2023-02-05T00:11:08;13.52;;;5.65;;
21272;SDS011;36726;52.328;10.552;2023-02-05T00:13:35;11.95;;;5.63;;
21272;SDS011;36726;52.328;10.552;2023-02-05T00:16:21;9.65;;;4.57;;
21272;SDS011;36726;52.328;10.552;2023-02-05T00:18:49;8.57;;;3.60;;
21272;SDS011;36726;52.328;10.552;2023-02-05T00:21:17;5.93;;;3.20;;
21272;SDS011;36726;52.328;10.552;2023-02-05T00:23:45;4.30;;;2.70;;
21272;SDS011;36726;52.328;10.552;2023-02-05T00:26:11;7.47;;;3.13;;
21272;SDS011;36726;52.328;10.552;2023-02-05T00:28:40;5.25;;;2.80;;
21272;SDS011;36726;52.328;10.552;2023-02-05T00:31:14;5.32;;;2.58;;
21272;SDS011;36726;52.328;10.552;2023-02-05T00:33:42;4.20;;;2.90;;
21272;SDS011;36726;52.328;10.552;2023-02-05T00:36:09;7.50;;;2.63;;
21272;SDS011;36726;52.328;10.552;2023-02-05T00:38:38;7.03;;;2.55;;
21272;SDS011;36726;52.328;10.552;2023-02-05T00:41:05;4.85;;;2.80;;
21272;SDS011;36726;52.328;10.552;2023-02-05T00:43:31;7.53;;;3.08;;
21272;SDS011;36726;52.328;10.552;2023-02-05T00:45:58;3.25;;;2.20;;
21272;SDS011;36726;52.328;10.552;2023-02-05T00:48:25;4.47;;;2.50;;
21272;SDS011;36726;52.328;10.552;2023-02-05T00:50:51;3.63;;;2.25;;
21272;SDS011;36726;52.328;10.552;2023-02-05T00:53:18;7.50;;;2.30;;
21272;SDS011;36726;52.328;10.552;2023-02-05T00:55:45;4.97;;;2.30;;
21272;SDS011;36726;52.328;10.552;2023-02-05T00:58:12;5.60;;;2.45;;
21272;SDS011;36726;52.328;10.552;2023-02-05T01:00:39;4.32;;;2.30;;
21272;SDS011;36726;52.328;10.552;2023-02-05T01:03:05;5.72;;;2.03;;
21272;SDS011;36726;52.328;10.552;2023-02-05T01:05:33;5.78;;;2.60;;
21272;SDS011;36726;52.328;10.552;2023-02-05T01:08:00;4.70;;;2.28;;
21272;SDS011;36726;52.328;10.552;2023-02-05T01:10:27;4.80;;;2.55;;
21272;SDS011;36726;52.328;10.552;2023-02-05T01:12:54;5.32;;;2.45;;
21272;SDS011;36726;52.328;10.552;2023-02-05T01:15:21;5.57;;;2.50;;
21272;SDS011;36726;52.328;10.552;2023-02-05T01:17:47;5.07;;;2.20;;
21272;SDS011;36726;52.328;10.552;2023-02-05T01:20:14;7.88;;;2.60;;
21272;SDS011;36726;52.328;10.552;2023-02-05T01:22:41;4.53;;;2.67;;
21272;SDS011;36726;52.328;10.552;2023-02-05T01:25:08;5.32;;;2.60;;
21272;SDS011;36726;52.328;10.552;2023-02-05T01:27:35;3.35;;;2.35;;
21272;SDS011;36726;52.328;10.552;2023-02-05T01:30:03;4.72;;;2.20;;
21272;SDS011;36726;52.328;10.552;2023-02-05T01:32:30;3.85;;;2.47;;
21272;SDS011;36726;52.328;10.552;2023-02-05T01:34:57;4.32;;;2.58;;
21272;SDS011;36726;52.328;10.552;2023-02-05T01:37:24;6.43;;;3.00;;
21272;SDS011;36726;52.328;10.552;2023-02-05T01:39:50;4.82;;;2.80;;
21272;SDS011;36726;52.328;10.552;2023-02-05T01:42:19;6.03;;;3.10;;
21272;SDS011;36726;52.328;10.552;2023-02-05T01:47:55;4.80;;;2.97;;
21272;SDS011;36726;52.328;10.552;2023-02-05T01:50:27;6.32;;;2.92;;
21272;SDS011;36726;52.328;10.552;2023-02-05T01:52:58;4.38;;;2.90;;
21272;SDS011;36726;52.328;10.552;2023-02-05T01:55:29;4.72;;;2.80;;
21272;SDS011;36726;52.328;10.552;2023-02-05T01:57:56;4.75;;;2.95;;
21272;SDS011;36726;52.328;10.552;2023-02-05T02:00:25;5.13;;;3.08;;
21272;SDS011;36726;52.328;10.552;2023-02-05T02:02:52;6.60;;;3.05;;
21272;SDS011;36726;52.328;10.552;2023-02-05T02:05:19;6.18;;;3.90;;
21272;SDS011;36726;52.328;10.552;2023-02-05T02:07:45;5.80;;;3.00;;
21272;SDS011;36726;52.328;10.552;2023-02-05T02:10:13;5.90;;;3.40;;
21272;SDS011;36726;52.328;10.552;2023-02-05T02:12:40;6.35;;;2.92;;
21272;SDS011;36726;52.328;10.552;2023-02-05T02:15:10;6.28;;;2.75;;
21272;SDS011;36726;52.328;10.552;2023-02-05T02:17:41;4.95;;;2.92;;
21272;SDS011;36726;52.328;10.552;2023-02-05T02:20:13;6.43;;;3.20;;
21272;SDS011;36726;52.328;10.552;2023-02-05T02:30:46;5.18;;;3.28;;
21272;SDS011;36726;52.328;10.552;2023-02-05T02:36:14;5.80;;;3.10;;
21272;SDS011;36726;52.328;10.552;2023-02-05T02:38:50;6.30;;;2.70;;
21272;SDS011;36726;52.328;10.552;2023-02-05T02:41:20;4.03;;;2.50;;
21272;SDS011;36726;52.328;10.552;2023-02-05T02:43:58;5.88;;;3.10;;
21272;SDS011;36726;52.328;10.552;2023-02-05T02:46:38;5.57;;;2.63;;
21272;SDS011;36726;52.328;10.552;2023-02-05T02:49:11;5.40;;;2.70;;
21272;SDS011;36726;52.328;10.552;2023-02-05T02:51:42;4.05;;;2.50;;
21272;SDS011;36726;52.328;10.552;2023-02-05T02:54:12;4.82;;;2.75;;
21272;SDS011;36726;52.328;10.552;2023-02-05T02:56:41;5.47;;;2.90;;
21272;SDS011;36726;52.328;10.552;2023-02-05T02:59:14;4.75;;;3.08;;
21272;SDS011;36726;52.328;10.552;2023-02-05T03:01:44;5.68;;;3.28;;
21272;SDS011;36726;52.328;10.552;2023-02-05T03:04:25;5.85;;;3.08;;
21272;SDS011;36726;52.328;10.552;2023-02-05T03:06:55;6.68;;;3.35;;
21272;SDS011;36726;52.328;10.552;2023-02-05T03:09:30;5.30;;;3.28;;
21272;SDS011;36726;52.328;10.552;2023-02-05T03:12:03;5.63;;;3.05;;
21272;SDS011;36726;52.328;10.552;2023-02-05T03:14:30;5.75;;;2.70;;
21272;SDS011;36726;52.328;10.552;2023-02-05T03:16:58;5.40;;;2.88;;
21272;SDS011;36726;52.328;10.552;2023-02-05T03:19:26;7.97;;;3.47;;
21272;SDS011;36726;52.328;10.552;2023-02-05T03:21:55;4.68;;;3.10;;
21272;SDS011;36726;52.328;10.552;2023-02-05T03:24:26;6.03;;;2.85;;
21272;SDS011;36726;52.328;10.552;2023-02-05T03:26:53;8.45;;;3.33;;
21272;SDS011;36726;52.328;10.552;2023-02-05T03:29:26;7.07;;;3.10;;
21272;SDS011;36726;52.328;10.552;2023-02-05T03:32:22;5.57;;;2.55;;
21272;SDS011;36726;52.328;10.552;2023-02-05T03:35:06;6.55;;;2.60;;
21272;SDS011;36726;52.328;10.552;2023-02-05T03:40:37;4.63;;;2.90;;
21272;SDS011;36726;52.328;10.552;2023-02-05T03:46:18;7.20;;;3.03;;
21272;SDS011;36726;52.328;10.552;2023-02-05T03:49:02;3.72;;;2.60;;
21272;SDS011;36726;52.328;10.552;2023-02-05T03:51:55;3.88;;;2.55;;
21272;SDS011;36726;52.328;10.552;2023-02-05T03:57:23;5.60;;;3.15;;
21272;SDS011;36726;52.328;10.552;2023-02-05T03:59:55;4.30;;;2.92;;
21272;SDS011;36726;52.328;10.552;2023-02-05T04:02:24;3.95;;;2.60;;
21272;SDS011;36726;52.328;10.552;2023-02-05T04:04:53;5.68;;;2.72;;
21272;SDS011;36726;52.328;10.552;2023-02-05T04:07:20;3.88;;;2.50;;
21272;SDS011;36726;52.328;10.552;2023-02-05T04:09:47;6.47;;;3.10;;
21272;SDS011;36726;52.328;10.552;2023-02-05T04:12:13;5.30;;;2.83;;
21272;SDS011;36726;52.328;10.552;2023-02-05T04:14:40;5.38;;;2.92;;
21272;SDS011;36726;52.328;10.552;2023-02-05T04:17:10;5.20;;;2.72;;
21272;SDS011;36726;52.328;10.552;2023-02-05T04:19:39;6.53;;;2.75;;
21272;SDS011;36726;52.328;10.552;2023-02-05T04:22:07;5.15;;;3.20;;
21272;SDS011;36726;52.328;10.552;2023-02-05T04:24:37;6.80;;;3.80;;
21272;SDS011;36726;52.328;10.552;2023-02-05T04:27:03;7.68;;;3.22;;
21272;SDS011;36726;52.328;10.552;2023-02-05T04:29:30;6.10;;;3.00;;
21272;SDS011;36726;52.328;10.552;2023-02-05T04:31:57;5.55;;;3.13;;
21272;SDS011;36726;52.328;10.552;2023-02-05T04:34:24;4.35;;;3.05;;
21272;SDS011;36726;52.328;10.552;2023-02-05T04:36:50;6.40;;;2.95;;
21272;SDS011;36726;52.328;10.552;2023-02-05T04:39:17;5.80;;;2.97;;
21272;SDS011;36726;52.328;10.552;2023-02-05T04:41:45;4.97;;;3.13;;
21272;SDS011;36726;52.328;10.552;2023-02-05T04:44:12;6.65;;;3.13;;
21272;SDS011;36726;52.328;10.552;2023-02-05T04:46:40;4.68;;;2.65;;
21272;SDS011;36726;52.328;10.552;2023-02-05T04:49:06;6.80;;;3.10;;
21272;SDS011;36726;52.328;10.552;2023-02-05T04:51:33;7.22;;;3.25;;
21272;SDS011;36726;52.328;10.552;2023-02-05T04:53:59;5.68;;;3.30;;
21272;SDS011;36726;52.328;10.552;2023-02-05T04:56:26;5.32;;;3.47;;
21272;SDS011;36726;52.328;10.552;2023-02-05T04:58:52;4.35;;;2.92;;
21272;SDS011;36726;52.328;10.552;2023-02-05T05:01:19;5.45;;;2.75;;
21272;SDS011;36726;52.328;10.552;2023-02-05T05:03:48;5.03;;;2.80;;
21272;SDS011;36726;52.328;10.552;2023-02-05T05:06:15;4.30;;;2.40;;
21272;SDS011;36726;52.328;10.552;2023-02-05T05:08:43;5.93;;;3.08;;
21272;SDS011;36726;52.328;10.552;2023-02-05T05:11:12;4.78;;;2.58;;
21272;SDS011;36726;52.328;10.552;2023-02-05T05:13:40;6.28;;;3.10;;
21272;SDS011;36726;52.328;10.552;2023-02-05T05:16:07;6.18;;;2.90;;
21272;SDS011;36726;52.328;10.552;2023-02-05T05:18:36;7.07;;;2.97;;
21272;SDS011;36726;52.328;10.552;2023-02-05T05:21:03;5.53;;;2.35;;
21272;SDS011;36726;52.328;10.552;2023-02-05T05:23:31;5.63;;;2.85;;
21272;SDS011;36726;52.328;10.552;2023-02-05T05:25:58;5.57;;;2.65;;
21272;SDS011;36726;52.328;10.552;2023-02-05T05:28:26;6.22;;;3.00;;
21272;SDS011;36726;52.328;10.552;2023-02-05T05:30:52;6.03;;;2.80;;
21272;SDS011;36726;52.328;10.552;2023-02-05T05:33:19;4.50;;;2.80;;
21272;SDS011;36726;52.328;10.552;2023-02-05T05:35:46;4.68;;;2.58;;
21272;SDS011;36726;52.328;10.552;2023-02-05T05:38:12;6.05;;;2.78;;
21272;SDS011;36726;52.328;10.552;2023-02-05T05:40:39;5.28;;;2.47;;
21272;SDS011;36726;52.328;10.552;2023-02-05T05:43:41;4.97;;;2.63;;
21272;SDS011;36726;52.328;10.552;2023-02-05T05:46:17;5.18;;;2.63;;
21272;SDS011;36726;52.328;10.552;2023-02-05T05:48:53;4.47;;;2.55;;
21272;SDS011;36726;52.328;10.552;2023-02-05T05:51:21;8.25;;;2.75;;
21272;SDS011;36726;52.328;10.552;2023-02-05T05:53:49;6.53;;;3.15;;
21272;SDS011;36726;52.328;10.552;2023-02-05T05:56:17;3.95;;;2.75;;
21272;SDS011;36726;52.328;10.552;2023-02-05T05:58:44;5.40;;;2.90;;
21272;SDS011;36726;52.328;10.552;2023-02-05T06:01:11;8.05;;;3.00;;
21272;SDS011;36726;52.328;10.552;2023-02-05T06:03:39;8.18;;;3.13;;
21272;SDS011;36726;52.328;10.552;2023-02-05T06:06:06;5.00;;;2.90;;
21272;SDS011;36726;52.328;10.552;2023-02-05T06:08:34;4.15;;;2.53;;
21272;SDS011;36726;52.328;10.552;2023-02-05T06:11:00;5.47;;;2.90;;
21272;SDS011;36726;52.328;10.552;2023-02-05T06:13:27;4.22;;;2.63;;
21272;SDS011;36726;52.328;10.552;2023-02-05T06:15:54;5.90;;;3.13;;
21272;SDS011;36726;52.328;10.552;2023-02-05T06:18:21;4.20;;;2.55;;
21272;SDS011;36726;52.328;10.552;2023-02-05T06:20:49;6.70;;;3.08;;
21272;SDS011;36726;52.328;10.552;2023-02-05T06:23:16;3.97;;;2.40;;
21272;SDS011;36726;52.328;10.552;2023-02-05T06:25:42;3.83;;;2.83;;
21272;SDS011;36726;52.328;10.552;2023-02-05T06:28:09;4.97;;;2.90;;
21272;SDS011;36726;52.328;10.552;2023-02-05T06:30:35;5.28;;;3.17;;
21272;SDS011;36726;52.328;10.552;2023-02-05T06:33:02;4.75;;;3.05;;
21272;SDS011;36726;52.328;10.552;2023-02-05T06:35:29;7.78;;;2.92;;
21272;SDS011;36726;52.328;10.552;2023-02-05T06:37:57;5.80;;;2.92;;
21272;SDS011;36726;52.328;10.552;2023-02-05T06:40:23;4.97;;;3.17;;
21272;SDS011;36726;52.328;10.552;2023-02-05T06:42:51;5.78;;;2.60;;
21272;SDS011;36726;52.328;10.552;2023-02-05T06:45:18;4.97;;;3.15;;
21272;SDS011;36726;52.328;10.552;2023-02-05T06:47:45;4.38;;;2.88;;
21272;SDS011;36726;52.328;10.552;2023-02-05T06:50:12;4.50;;;2.47;;
21272;SDS011;36726;52.328;10.552;2023-02-05T06:52:39;5.35;;;3.17;;
21272;SDS011;36726;52.328;10.552;2023-02-05T06:55:06;4.50;;;3.08;;
21272;SDS011;36726;52.328;10.552;2023-02-05T06:57:33;4.30;;;3.15;;
21272;SDS011;36726;52.328;10.552;2023-02-05T06:59:59;5.75;;;2.92;;
21272;SDS011;36726;52.328;10.552;2023-02-05T07:02:26;6.07;;;2.97;;
21272;SDS011;36726;52.328;10.552;2023-02-05T07:04:52;6.53;;;3.33;;
21272;SDS011;36726;52.328;10.552;2023-02-05T07:07:19;5.40;;;2.72;;
21272;SDS011;36726;52.328;10.552;2023-02-05T07:09:45;4.57;;;2.80;;
21272;SDS011;36726;52.328;10.552;2023-02-05T07:12:12;5.53;;;2.97;;
21272;SDS011;36726;52.328;10.552;2023-02-05T07:14:39;8.80;;;3.30;;
21272;SDS011;36726;52.328;10.552;2023-02-05T07:17:09;4.75;;;2.90;;
21272;SDS011;36726;52.328;10.552;2023-02-05T07:19:36;6.40;;;2.80;;
21272;SDS011;36726;52.328;10.552;2023-02-05T07:22:03;5.07;;;2.95;;
21272;SDS011;36726;52.328;10.552;2023-02-05T07:24:30;6.05;;;3.20;;
21272;SDS011;36726;52.328;10.552;2023-02-05T07:26:57;5.13;;;3.10;;
21272;SDS011;36726;52.328;10.552;2023-02-05T07:29:23;7.07;;;4.03;;
21272;SDS011;36726;52.328;10.552;2023-02-05T07:31:50;9.15;;;4.00;;
21272;SDS011;36726;52.328;10.552;2023-02-05T07:34:17;8.13;;;3.38;;
21272;SDS011;36726;52.328;10.552;2023-02-05T07:36:48;7.70;;;3.42;;
21272;SDS011;36726;52.328;10.552;2023-02-05T07:39:16;6.22;;;3.35;;
21272;SDS011;36726;52.328;10.552;2023-02-05T07:41:43;6.63;;;3.15;;
21272;SDS011;36726;52.328;10.552;2023-02-05T07:44:19;5.55;;;2.97;;
21272;SDS011;36726;52.328;10.552;2023-02-05T07:46:46;5.15;;;3.13;;
21272;SDS011;36726;52.328;10.552;2023-02-05T07:49:12;4.38;;;3.03;;
21272;SDS011;36726;52.328;10.552;2023-02-05T07:51:40;6.68;;;2.92;;
21272;SDS011;36726;52.328;10.552;2023-02-05T07:54:06;6.10;;;3.08;;
21272;SDS011;36726;52.328;10.552;2023-02-05T07:56:34;5.80;;;3.33;;
21272;SDS011;36726;52.328;10.552;2023-02-05T07:59:01;6.53;;;3.42;;
21272;SDS011;36726;52.328;10.552;2023-02-05T08:01:28;7.88;;;3.70;;
21272;SDS011;36726;52.328;10.552;2023-02-05T08:03:55;7.10;;;4.00;;
21272;SDS011;36726;52.328;10.552;2023-02-05T08:06:21;6.53;;;3.60;;
21272;SDS011;36726;52.328;10.552;2023-02-05T08:08:48;6.45;;;3.78;;
21272;SDS011;36726;52.328;10.552;2023-02-05T08:11:15;5.03;;;3.38;;
21272;SDS011;36726;52.328;10.552;2023-02-05T08:13:43;6.63;;;3.60;;
21272;SDS011;36726;52.328;10.552;2023-02-05T08:16:11;6.90;;;3.70;;
21272;SDS011;36726;52.328;10.552;2023-02-05T08:18:41;7.50;;;3.85;;
21272;SDS011;36726;52.328;10.552;2023-02-05T08:21:08;7.40;;;4.53;;
21272;SDS011;36726;52.328;10.552;2023-02-05T08:23:35;7.35;;;4.30;;
21272;SDS011;36726;52.328;10.552;2023-02-05T08:26:01;9.38;;;4.07;;
21272;SDS011;36726;52.328;10.552;2023-02-05T08:28:28;6.95;;;3.53;;
21272;SDS011;36726;52.328;10.552;2023-02-05T08:30:55;6.80;;;3.40;;
21272;SDS011;36726;52.328;10.552;2023-02-05T08:33:22;6.13;;;3.22;;
21272;SDS011;36726;52.328;10.552;2023-02-05T08:35:49;5.75;;;3.22;;
21272;SDS011;36726;52.328;10.552;2023-02-05T08:38:15;5.18;;;3.13;;
21272;SDS011;36726;52.328;10.552;2023-02-05T08:40:42;5.93;;;3.17;;
21272;SDS011;36726;52.328;10.552;2023-02-05T08:43:09;3.75;;;2.42;;
21272;SDS011;36726;52.328;10.552;2023-02-05T08:45:35;5.65;;;3.13;;
21272;SDS011;36726;52.328;10.552;2023-02-05T08:48:03;5.38;;;3.03;;
21272;SDS011;36726;52.328;10.552;2023-02-05T08:50:30;7.63;;;4.40;;
21272;SDS011;36726;52.328;10.552;2023-02-05T08:52:56;9.90;;;4.78;;
21272;SDS011;36726;52.328;10.552;2023-02-05T08:55:23;11.13;;;5.18;;
21272;SDS011;36726;52.328;10.552;2023-02-05T08:57:49;13.23;;;5.65;;
21272;SDS011;36726;52.328;10.552;2023-02-05T09:00:16;7.47;;;3.85;;
21272;SDS011;36726;52.328;10.552;2023-02-05T09:02:43;5.93;;;3.47;;
21272;SDS011;36726;52.328;10.552;2023-02-05T09:05:10;5.95;;;3.17;;
21272;SDS011;36726;52.328;10.552;2023-02-05T09:07:37;6.60;;;3.78;;
21272;SDS011;36726;52.328;10.552;2023-02-05T09:10:06;4.95;;;3.42;;
21272;SDS011;36726;52.328;10.552;2023-02-05T09:12:35;4.40;;;3.15;;
21272;SDS011;36726;52.328;10.552;2023-02-05T09:15:02;7.03;;;4.05;;
21272;SDS011;36726;52.328;10.552;2023-02-05T09:17:30;6.30;;;4.35;;
21272;SDS011;36726;52.328;10.552;2023-02-05T09:20:00;7.75;;;4.28;;
21272;SDS011;36726;52.328;10.552;2023-02-05T09:22:27;6.97;;;3.15;;
21272;SDS011;36726;52.328;10.552;2023-02-05T09:24:53;7.78;;;3.13;;
21272;SDS011;36726;52.328;10.552;2023-02-05T09:27:20;6.97;;;3.38;;
21272;SDS011;36726;52.328;10.552;2023-02-05T09:29:46;6.28;;;3.47;;
21272;SDS011;36726;52.328;10.552;2023-02-05T09:32:13;5.65;;;3.30;;
21272;SDS011;36726;52.328;10.552;2023-02-05T09:34:39;5.07;;;2.95;;
21272;SDS011;36726;52.328;10.552;2023-02-05T09:37:06;6.95;;;3.50;;
21272;SDS011;36726;52.328;10.552;2023-02-05T09:39:33;5.68;;;2.97;;
21272;SDS011;36726;52.328;10.552;2023-02-05T09:42:32;5.10;;;3.10;;
21272;SDS011;36726;52.328;10.552;2023-02-05T09:45:13;4.78;;;2.90;;
21272;SDS011;36726;52.328;10.552;2023-02-05T09:50:49;5.28;;;3.22;;
21272;SDS011;36726;52.328;10.552;2023-02-05T09:53:18;7.43;;;3.53;;
21272;SDS011;36726;52.328;10.552;2023-02-05T09:55:47;6.57;;;3.30;;
21272;SDS011;36726;52.328;10.552;2023-02-05T09:58:20;4.75;;;3.42;;
21272;SDS011;36726;52.328;10.552;2023-02-05T10:00:54;5.10;;;3.25;;
21272;SDS011;36726;52.328;10.552;2023-02-05T10:03:35;5.63;;;2.90;;
21272;SDS011;36726;52.328;10.552;2023-02-05T10:08:40;4.10;;;3.08;;
21272;SDS011;36726;52.328;10.552;2023-02-05T10:11:24;5.88;;;3.33;;
21272;SDS011;36726;52.328;10.552;2023-02-05T10:14:06;5.57;;;3.17;;
21272;SDS011;36726;52.328;10.552;2023-02-05T10:19:55;6.60;;;3.67;;
21272;SDS011;36726;52.328;10.552;2023-02-05T10:22:49;4.30;;;3.25;;
21272;SDS011;36726;52.328;10.552;2023-02-05T10:25:31;5.63;;;3.30;;
21272;SDS011;36726;52.328;10.552;2023-02-05T10:30:41;6.20;;;3.70;;
21272;SDS011;36726;52.328;10.552;2023-02-05T10:33:17;5.97;;;3.78;;
21272;SDS011;36726;52.328;10.552;2023-02-05T10:35:57;5.72;;;3.45;;
21272;SDS011;36726;52.328;10.552;2023-02-05T10:38:28;5.13;;;3.15;;
21272;SDS011;36726;52.328;10.552;2023-02-05T10:41:46;8.07;;;4.22;;
21272;SDS011;36726;52.328;10.552;2023-02-05T10:43:50;8.38;;;5.00;;
21272;SDS011;36726;52.328;10.552;2023-02-05T10:46:27;4.30;;;2.97;;
21272;SDS011;36726;52.328;10.552;2023-02-05T10:49:00;3.38;;;2.80;;
21272;SDS011;36726;52.328;10.552;2023-02-05T10:51:38;5.22;;;3.38;;
21272;SDS011;36726;52.328;10.552;2023-02-05T10:54:13;5.35;;;3.00;;
21272;SDS011;36726;52.328;10.552;2023-02-05T10:56:54;5.50;;;2.88;;
21272;SDS011;36726;52.328;10.552;2023-02-05T10:59:24;5.55;;;2.97;;
21272;SDS011;36726;52.328;10.552;2023-02-05T11:02:06;5.50;;;3.10;;
21272;SDS011;36726;52.328;10.552;2023-02-05T11:04:40;4.70;;;3.15;;
21272;SDS011;36726;52.328;10.552;2023-02-05T11:07:11;5.97;;;2.80;;
21272;SDS011;36726;52.328;10.552;2023-02-05T11:09:44;3.60;;;2.30;;
21272;SDS011;36726;52.328;10.552;2023-02-05T11:12:28;4.63;;;2.50;;
21272;SDS011;36726;52.328;10.552;2023-02-05T11:14:58;7.80;;;3.08;;
21272;SDS011;36726;52.328;10.552;2023-02-05T11:17:32;5.13;;;3.15;;
21272;SDS011;36726;52.328;10.552;2023-02-05T11:20:03;6.25;;;3.15;;
21272;SDS011;36726;52.328;10.552;2023-02-05T11:23:03;7.63;;;3.33;;
21272;SDS011;36726;52.328;10.552;2023-02-05T11:25:33;4.95;;;3.03;;
21272;SDS011;36726;52.328;10.552;2023-02-05T11:28:01;6.20;;;3.30;;
21272;SDS011;36726;52.328;10.552;2023-02-05T11:35:49;5.07;;;2.60;;
21272;SDS011;36726;52.328;10.552;2023-02-05T11:40:58;3.92;;;3.10;;
21272;SDS011;36726;52.328;10.552;2023-02-05T11:46:15;4.65;;;3.15;;
21272;SDS011;36726;52.328;10.552;2023-02-05T11:49:03;4.57;;;2.65;;
21272;SDS011;36726;52.328;10.552;2023-02-05T11:54:03;5.20;;;3.13;;
21272;SDS011;36726;52.328;10.552;2023-02-05T11:56:39;5.93;;;3.40;;
21272;SDS011;36726;52.328;10.552;2023-02-05T11:59:16;8.63;;;4.65;;
21272;SDS011;36726;52.328;10.552;2023-02-05T12:01:46;5.93;;;3.35;;
21272;SDS011;36726;52.328;10.552;2023-02-05T12:04:16;5.50;;;3.00;;
21272;SDS011;36726;52.328;10.552;2023-02-05T12:07:07;5.57;;;3.28;;
21272;SDS011;36726;52.328;10.552;2023-02-05T12:09:37;4.93;;;3.33;;
21272;SDS011;36726;52.328;10.552;2023-02-05T12:12:25;5.25;;;3.00;;
21272;SDS011;36726;52.328;10.552;2023-02-05T12:18:25;5.63;;;3.30;;
21272;SDS011;36726;52.328;10.552;2023-02-05T12:27:05;5.75;;;3.78;;
21272;SDS011;36726;52.328;10.552;2023-02-05T12:32:14;24.67;;;14.27;;
21272;SDS011;36726;52.328;10.552;2023-02-05T12:34:47;6.32;;;3.22;;
21272;SDS011;36726;52.328;10.552;2023-02-05T12:40:08;6.93;;;3.72;;
21272;SDS011;36726;52.328;10.552;2023-02-05T12:42:48;6.13;;;3.72;;
21272;SDS011;36726;52.328;10.552;2023-02-05T12:48:45;9.32;;;5.57;;
21272;SDS011;36726;52.328;10.552;2023-02-05T12:51:26;10.13;;;6.38;;
21272;SDS011;36726;52.328;10.552;2023-02-05T12:56:59;8.93;;;5.60;;
21272;SDS011;36726;52.328;10.552;2023-02-05T12:59:43;6.13;;;3.83;;
21272;SDS011;36726;52.328;10.552;2023-02-05T13:07:45;10.50;;;5.75;;
21272;SDS011;36726;52.328;10.552;2023-02-05T13:10:23;6.55;;;3.55;;
21272;SDS011;36726;52.328;10.552;2023-02-05T13:12:59;4.72;;;2.75;;
21272;SDS011;36726;52.328;10.552;2023-02-05T13:15:33;5.65;;;2.95;;
21272;SDS011;36726;52.328;10.552;2023-02-05T13:18:11;4.57;;;2.65;;
21272;SDS011;36726;52.328;10.552;2023-02-05T13:20:45;11.40;;;5.03;;
21272;SDS011;36726;52.328;10.552;2023-02-05T13:23:34;5.18;;;2.95;;
21272;SDS011;36726;52.328;10.552;2023-02-05T13:26:24;8.88;;;4.97;;
21272;SDS011;36726;52.328;10.552;2023-02-05T13:29:16;5.63;;;3.40;;
21272;SDS011;36726;52.328;10.552;2023-02-05T13:31:48;4.60;;;2.83;;
21272;SDS011;36726;52.328;10.552;2023-02-05T13:34:20;4.63;;;3.28;;
21272;SDS011;36726;52.328;10.552;2023-02-05T13:48:19;9.82;;;3.53;;
21272;SDS011;36726;52.328;10.552;2023-02-05T13:51:10;5.38;;;3.35;;
21272;SDS011;36726;52.328;10.552;2023-02-05T13:54:02;6.03;;;3.63;;
21272;SDS011;36726;52.328;10.552;2023-02-05T13:59:39;6.32;;;3.58;;
21272;SDS011;36726;52.328;10.552;2023-02-05T14:05:00;7.90;;;3.38;;
21272;SDS011;36726;52.328;10.552;2023-02-05T14:07:28;4.93;;;3.30;;
21272;SDS011;36726;52.328;10.552;2023-02-05T14:09:58;4.00;;;2.90;;
21272;SDS011;36726;52.328;10.552;2023-02-05T14:12:28;6.47;;;3.25;;
21272;SDS011;36726;52.328;10.552;2023-02-05T14:22:52;14.70;;;7.78;;
21272;SDS011;36726;52.328;10.552;2023-02-05T14:41:30;6.10;;;3.08;;
21272;SDS011;36726;52.328;10.552;2023-02-05T14:44:34;14.88;;;8.18;;
21272;SDS011;36726;52.328;10.552;2023-02-05T14:49:46;5.28;;;3.20;;
21272;SDS011;36726;52.328;10.552;2023-02-05T14:54:45;5.97;;;3.45;;
21272;SDS011;36726;52.328;10.552;2023-02-05T14:57:17;6.38;;;3.60;;
21272;SDS011;36726;52.328;10.552;2023-02-05T15:05:29;16.58;;;10.88;;
21272;SDS011;36726;52.328;10.552;2023-02-05T15:08:03;6.72;;;3.95;;
21272;SDS011;36726;52.328;10.552;2023-02-05T15:10:42;9.55;;;4.45;;
21272;SDS011;36726;52.328;10.552;2023-02-05T15:13:16;8.45;;;4.80;;
21272;SDS011;36726;52.328;10.552;2023-02-05T15:18:56;6.10;;;3.25;;
21272;SDS011;36726;52.328;10.552;2023-02-05T15:21:28;7.35;;;3.53;;
21272;SDS011;36726;52.328;10.552;2023-02-05T15:24:00;5.32;;;3.03;;
21272;SDS011;36726;52.328;10.552;2023-02-05T15:27:14;8.85;;;4.20;;
21272;SDS011;36726;52.328;10.552;2023-02-05T15:29:27;7.30;;;4.88;;
21272;SDS011;36726;52.328;10.552;2023-02-05T15:32:18;9.45;;;4.55;;
21272;SDS011;36726;52.328;10.552;2023-02-05T15:34:51;9.18;;;6.00;;
21272;SDS011;36726;52.328;10.552;2023-02-05T15:40:19;11.00;;;5.38;;
21272;SDS011;36726;52.328;10.552;2023-02-05T15:42:53;8.27;;;4.40;;
21272;SDS011;36726;52.328;10.552;2023-02-05T15:45:24;9.65;;;5.28;;
21272;SDS011;36726;52.328;10.552;2023-02-05T15:48:15;17.90;;;9.52;;
21272;SDS011;36726;52.328;10.552;2023-02-05T15:50:50;14.77;;;7.20;;
21272;SDS011;36726;52.328;10.552;2023-02-05T15:58:44;8.85;;;4.40;;
21272;SDS011;36726;52.328;10.552;2023-02-05T16:01:21;8.32;;;4.55;;
21272;SDS011;36726;52.328;10.552;2023-02-05T16:03:50;7.80;;;4.50;;
21272;SDS011;36726;52.328;10.552;2023-02-05T16:06:19;10.38;;;5.13;;
21272;SDS011;36726;52.328;10.552;2023-02-05T16:08:50;8.95;;;5.30;;
21272;SDS011;36726;52.328;10.552;2023-02-05T16:11:31;12.38;;;5.40;;
21272;SDS011;36726;52.328;10.552;2023-02-05T16:14:05;9.63;;;5.30;;
21272;SDS011;36726;52.328;10.552;2023-02-05T16:16:43;9.30;;;4.85;;
21272;SDS011;36726;52.328;10.552;2023-02-05T16:19:18;11.63;;;6.93;;
21272;SDS011;36726;52.328;10.552;2023-02-05T16:21:51;13.60;;;7.13;;
21272;SDS011;36726;52.328;10.552;2023-02-05T16:24:26;11.93;;;5.95;;
21272;SDS011;36726;52.328;10.552;2023-02-05T16:27:02;10.77;;;6.03;;
21272;SDS011;36726;52.328;10.552;2023-02-05T16:29:36;10.90;;;6.30;;
21272;SDS011;36726;52.328;10.552;2023-02-05T16:34:49;14.07;;;7.18;;
21272;SDS011;36726;52.328;10.552;2023-02-05T16:37:16;17.75;;;8.18;;
21272;SDS011;36726;52.328;10.552;2023-02-05T16:39:45;16.10;;;9.07;;
21272;SDS011;36726;52.328;10.552;2023-02-05T16:42:28;22.73;;;12.15;;
21272;SDS011;36726;52.328;10.552;2023-02-05T16:47:35;19.33;;;10.35;;
21272;SDS011;36726;52.328;10.552;2023-02-05T16:53:02;15.02;;;8.55;;
21272;SDS011;36726;52.328;10.552;2023-02-05T16:55:44;14.52;;;8.60;;
21272;SDS011;36726;52.328;10.552;2023-02-05T16:58:14;14.38;;;7.93;;
21272;SDS011;36726;52.328;10.552;2023-02-05T17:00:50;12.57;;;7.75;;
21272;SDS011;36726;52.328;10.552;2023-02-05T17:03:24;13.88;;;8.23;;
21272;SDS011;36726;52.328;10.552;2023-02-05T17:05:57;16.13;;;7.78;;
21272;SDS011;36726;52.328;10.552;2023-02-05T17:08:28;13.25;;;5.85;;
21272;SDS011;36726;52.328;10.552;2023-02-05T17:11:02;8.63;;;5.15;;
21272;SDS011;36726;52.328;10.552;2023-02-05T17:13:35;11.88;;;6.53;;
21272;SDS011;36726;52.328;10.552;2023-02-05T17:16:23;10.23;;;6.47;;
21272;SDS011;36726;52.328;10.552;2023-02-05T17:18:58;11.70;;;7.00;;
21272;SDS011;36726;52.328;10.552;2023-02-05T17:21:32;17.25;;;9.10;;
21272;SDS011;36726;52.328;10.552;2023-02-05T17:24:00;17.10;;;9.38;;